Flight Track Log - Related Links

Times and Time Zones

All times are in EDT time to prevent confusion due to time zone crossing. See the QLK108D flight status page for this flight to view local times or setup timezone preferences in your user account.

Time Position Orientation Groundspeed Altitude Reporting Facility
EDT Latitude Longitude Course Direction KTS MPH feet Rate Location/Type
Wed 08:47:46 PM -33.9470 151.1878 North 123 142 700  Level Aus ATC (RADAR)
Wed 08:48:33 PM -33.9129 151.1894 North 165 190 1,900 1,667 Climbing Aus ATC (RADAR)
Wed 08:48:58 PM -33.8917 151.1897 North 180 207 2,700 1,600 Climbing Aus ATC (RADAR)
Wed 08:50:03 PM -33.8312 151.2142 19° North 233 268 4,300 1,516 Climbing Aus ATC (RADAR)
Wed 08:50:33 PM -33.8020 151.2352 31° Northeast 244 281 5,100 1,636 Climbing Aus ATC (RADAR)
Wed 08:50:58 PM -33.7768 151.2505 27° Northeast 245 282 5,800 1,714 Climbing Aus ATC (RADAR)
Wed 08:51:36 PM -33.7382 151.2760 29° Northeast 244 281 6,900 1,680 Climbing Aus ATC (RADAR)
Wed 08:52:13 PM -33.7007 151.3003 28° Northeast 252 290 7,900 1,583 Climbing Aus ATC (RADAR)
Wed 08:52:48 PM -33.6641 151.3241 28° Northeast 257 296 8,800 1,663 Climbing Aus ATC (RADAR)
Wed 08:53:36 PM -33.6125 151.3573 28° Northeast 259 298 10,200 1,760 Climbing Aus ATC (RADAR)
Wed 08:54:03 PM -33.5839 151.3752 28° Northeast 265 305 11,000 1,624 Climbing Aus ATC (RADAR)
Wed 08:55:01 PM -33.5204 151.4162 28° Northeast 263 303 12,500 1,286 Climbing Aus ATC (RADAR)
Wed 08:55:27 PM -33.4910 151.4348 28° Northeast 271 312 12,800 655 Climbing Aus ATC (RADAR)
Wed 08:55:56 PM -33.4574 151.4552 27° Northeast 281 323 13,100 1,108 Climbing Aus ATC (RADAR)
Wed 08:56:32 PM -33.4135 151.4795 25° Northeast 287 330 14,000 1,671 Climbing Aus ATC (RADAR)
Wed 08:57:15 PM -33.3610 151.5095 26° Northeast 288 331 15,300 1,725 Climbing Aus ATC (RADAR)
Wed 08:57:52 PM -33.3168 151.5345 25° Northeast 292 336 16,300 1,537 Climbing Aus ATC (RADAR)
Wed 08:58:37 PM -33.2635 151.5652 26° Northeast 282 325 17,400 1,286 Climbing Aus ATC (RADAR)
Wed 08:59:02 PM -33.2347 151.5824 26° Northeast 279 321 17,800 874 Climbing Aus ATC (RADAR)
Wed 09:00:20 PM -33.1416 151.6349 25° Northeast 283 326 18,900 850 Climbing Aus ATC (RADAR)
Wed 09:01:02 PM -33.0920 151.6632 26° Northeast 287 330 19,500 947 Climbing Aus ATC (RADAR)
Wed 09:01:17 PM -33.0737 151.6739 26° Northeast 290 334 19,800 875 Climbing Aus ATC (RADAR)
Wed 09:01:50 PM -33.0320 151.6978 26° Northeast 292 336 20,200 723 Climbing Aus ATC (RADAR)
Wed 09:02:40 PM -32.9705 151.7334 26° Northeast 297 342 20,800 424 Climbing Aus ATC (RADAR)
Wed 09:03:15 PM -32.9252 151.7596 26° Northeast 310 357 20,800  Level Aus ATC (RADAR)
Wed 09:04:05 PM -32.8568 151.7989 26° Northeast 329 379 20,800  Level Aus ATC (RADAR)
Wed 09:04:37 PM -32.8116 151.8234 24° Northeast 338 389 20,800  Level Aus ATC (RADAR)
Wed 09:06:12 PM -32.6712 151.9028 25° Northeast 354 407 20,800  Level Aus ATC (RADAR)
Wed 09:07:27 PM -32.5589 151.9656 25° Northeast 355 409 20,800  Level Aus ATC (RADAR)
Wed 09:08:02 PM -32.5067 151.9955 26° Northeast 355 409 20,800  Level Aus ATC (RADAR)
Wed 09:08:51 PM -32.4321 152.0370 25° Northeast 354 407 20,800  Level Aus ATC (RADAR)
Wed 09:09:21 PM -32.3872 152.0618 25° Northeast 353 406 20,800  Level Aus ATC (RADAR)
Wed 09:10:12 PM -32.3120 152.1033 25° Northeast 356 410 20,800  Level Aus ATC (RADAR)
Wed 09:10:31 PM -32.2820 152.1201 25° Northeast 355 409 20,800  Level Aus ATC (RADAR)
Wed 09:11:56 PM -32.1535 152.1910 25° Northeast 356 410 20,800  Level Aus ATC (RADAR)
Wed 09:12:36 PM -32.0936 152.2247 25° Northeast 355 409 20,800  Level Aus ATC (RADAR)
Wed 09:13:26 PM -32.0182 152.2658 25° Northeast 355 409 20,800  Level Aus ATC (RADAR)
Wed 09:13:46 PM -31.9878 152.2823 25° Northeast 357 411 20,800  Level Aus ATC (RADAR)
Wed 09:14:16 PM -31.9420 152.3049 23° Northeast 354 407 20,800 145 Level Aus ATC (RADAR)
Wed 09:15:09 PM -31.8588 152.3437 22° Northeast 358 412 21,000 106 Climbing Aus ATC (RADAR)
Wed 09:16:09 PM -31.7667 152.3887 23° Northeast 358 412 21,000 51 Level Aus ATC (RADAR)
Wed 09:17:06 PM -31.6808 152.4308 23° Northeast 356 410 21,100 73 Climbing Aus ATC (RADAR)
Wed 09:17:31 PM -31.6424 152.4485 21° North 354 407 21,100 -320 Level Aus ATC (RADAR)
Wed 09:18:21 PM -31.5657 152.4853 22° Northeast 354 407 20,700 -933 Descending Aus ATC (RADAR)
Wed 09:19:01 PM -31.5034 152.5157 23° Northeast 358 412 19,700 -1,527 Descending Aus ATC (RADAR)
Wed 09:20:11 PM -31.3938 152.5669 22° Northeast 356 410 17,900 -1,500 Descending Aus ATC (RADAR)
Wed 09:21:29 PM -31.2738 152.6236 22° Northeast 353 406 16,000 -1,516 Descending Aus ATC (RADAR)
Wed 09:21:46 PM -31.2495 152.6353 22° Northeast 347 399 15,500 -1,527 Descending Aus ATC (RADAR)
Wed 09:22:24 PM -31.1915 152.6638 23° Northeast 347 399 14,600 -1,390 Descending Aus ATC (RADAR)
Wed 09:23:08 PM -31.1254 152.6951 22° Northeast 342 394 13,600 -1,443 Descending Aus ATC (RADAR)
Wed 09:23:43 PM -31.0743 152.7194 22° Northeast 341 392 12,700 -1,425 Descending Aus ATC (RADAR)
Wed 09:24:28 PM -31.0099 152.7504 22° Northeast 337 388 11,700 -1,315 Descending Aus ATC (RADAR)
Wed 09:24:56 PM -30.9737 152.7673 22° Northeast 321 369 11,100 -1,326 Descending Aus ATC (RADAR)
Wed 09:26:03 PM -30.8857 152.8093 22° Northeast 291 335 9,600 -1,200 Descending Aus ATC (RADAR)
Wed 09:26:31 PM -30.8541 152.8229 20° North 276 318 9,200 -1,067 Descending Aus ATC (RADAR)
Wed 09:26:48 PM -30.8319 152.8330 21° North 277 319 8,800 -1,231 Descending Aus ATC (RADAR)
Wed 09:27:10 PM -30.8071 152.8444 22° Northeast 268 308 8,400 -1,161 Descending Aus ATC (RADAR)
Wed 09:27:50 PM -30.7607 152.8665 22° Northeast 266 306 7,600 -1,113 Descending Aus ATC (RADAR)
Wed 09:29:41 PM -30.6363 152.9247 22° Northeast 258 297 5,600 -1,083 Descending Aus ATC (RADAR)
Wed 09:30:03 PM -30.6090 152.9377 22° Northeast 267 307 5,200 -1,039 Descending Aus ATC (RADAR)
Wed 09:31:48 PM -30.5027 152.9884 22° Northeast 217 250 3,400 -987 Descending Aus ATC (RADAR)
Wed 09:32:35 PM -30.4591 153.0077 21° North 213 245 2,700 -857 Descending Aus ATC (RADAR)
Wed 09:32:58 PM -30.4394 153.0181 25° Northeast 208 239 2,400 -792 Descending Aus ATC (RADAR)
Wed 09:33:28 PM -30.4257 153.0288 34° Northeast 207 238 2,000 -821 Descending Aus ATC (RADAR)
Wed 09:34:33 PM -30.3790 153.0637 33° Northeast 164 189 1,100 -857 Descending Aus ATC (RADAR)
Wed 09:34:45 PM -30.3747 153.0695 49° Northeast 147 169 900 -1,000 Descending Aus ATC (RADAR)

Login

Don't have an account? Register now (free) for customized features, flight alerts, and more!